createdAt,value
2023-05-09T00:01:14.577Z,15.63
2023-05-09T00:03:36.173Z,15.65
2023-05-09T00:05:57.603Z,15.71
2023-05-09T00:08:19.077Z,15.69
2023-05-09T00:10:40.666Z,15.57
2023-05-09T00:13:02.160Z,15.44
2023-05-09T00:15:24.002Z,15.49
2023-05-09T00:17:45.874Z,15.48
2023-05-09T00:20:11.703Z,15.41
2023-05-09T00:22:33.182Z,15.32
2023-05-09T00:24:54.611Z,15.33
2023-05-09T00:27:16.569Z,15.26
2023-05-09T00:29:38.057Z,15.25
2023-05-09T00:31:59.595Z,15.20
2023-05-09T00:34:21.083Z,15.15
2023-05-09T00:36:42.538Z,15.11
2023-05-09T00:39:03.976Z,15.17
2023-05-09T00:41:25.979Z,15.04
2023-05-09T00:43:47.414Z,15.04
2023-05-09T00:46:09.013Z,14.98
2023-05-09T00:48:30.526Z,14.92
2023-05-09T00:50:53.212Z,14.87
2023-05-09T00:53:14.960Z,14.88
2023-05-09T00:55:36.618Z,14.69
2023-05-09T00:57:58.220Z,14.65
2023-05-09T01:00:19.674Z,14.65
2023-05-09T01:02:42.918Z,14.53
2023-05-09T01:05:04.894Z,14.47
2023-05-09T01:07:52.557Z,14.48
2023-05-09T01:10:54.336Z,14.42
2023-05-09T01:13:27.298Z,14.35
2023-05-09T01:15:59.815Z,14.35
2023-05-09T01:18:40.033Z,14.18
2023-05-09T01:21:08.884Z,14.06
2023-05-09T01:23:59.411Z,13.93
2023-05-09T01:26:57.907Z,14.02
2023-05-09T01:29:44.109Z,13.94
2023-05-09T01:32:11.894Z,13.88
2023-05-09T01:34:35.247Z,13.86
2023-05-09T01:37:00.737Z,13.85
2023-05-09T01:39:25.332Z,13.81
2023-05-09T01:41:46.878Z,13.78
2023-05-09T01:44:11.788Z,13.81
2023-05-09T01:46:35.387Z,13.80
2023-05-09T01:48:57.746Z,13.67
2023-05-09T01:51:21.358Z,13.38
2023-05-09T01:53:45.089Z,13.28
2023-05-09T01:56:09.364Z,13.31
2023-05-09T01:58:33.687Z,13.42
2023-05-09T02:00:55.464Z,13.51
2023-05-09T02:03:17.079Z,13.53
2023-05-09T02:05:39.388Z,13.52
2023-05-09T02:08:01.078Z,13.52
2023-05-09T02:10:22.691Z,13.36
2023-05-09T02:12:44.196Z,13.23
2023-05-09T02:15:06.805Z,13.23
2023-05-09T02:17:30.826Z,13.20
2023-05-09T02:19:52.349Z,13.25
2023-05-09T02:22:14.811Z,13.24
2023-05-09T02:24:36.860Z,13.26
2023-05-09T02:26:58.437Z,13.21
2023-05-09T02:29:23.183Z,13.20
2023-05-09T02:31:47.008Z,13.19
2023-05-09T02:34:09.739Z,13.08
2023-05-09T02:36:32.665Z,13.06
2023-05-09T02:38:54.644Z,12.97
2023-05-09T02:41:17.201Z,12.85
2023-05-09T02:43:38.667Z,12.84
2023-05-09T02:46:00.663Z,12.91
2023-05-09T02:48:22.227Z,12.91
2023-05-09T02:50:44.322Z,12.96
2023-05-09T02:53:06.216Z,12.94
2023-05-09T02:55:28.469Z,12.86
2023-05-09T02:57:56.182Z,12.82
2023-05-09T03:00:25.717Z,12.78
2023-05-09T03:02:47.301Z,12.80
2023-05-09T03:05:09.358Z,12.78
2023-05-09T03:07:31.197Z,12.74
2023-05-09T03:09:52.660Z,12.70
2023-05-09T03:12:14.156Z,12.71
2023-05-09T03:14:35.636Z,12.63
2023-05-09T03:16:57.127Z,12.66
2023-05-09T03:19:18.617Z,12.64
2023-05-09T03:21:40.103Z,12.61
2023-05-09T03:24:01.941Z,12.57
2023-05-09T03:26:23.438Z,12.59
2023-05-09T03:28:46.850Z,12.61
2023-05-09T03:31:08.371Z,12.58
2023-05-09T03:33:30.025Z,12.57
2023-05-09T03:35:51.739Z,12.55
2023-05-09T03:38:13.243Z,12.55
2023-05-09T03:40:34.695Z,12.55
2023-05-09T03:42:56.134Z,12.59
2023-05-09T03:45:17.584Z,12.57
2023-05-09T03:47:39.153Z,12.49
2023-05-09T03:50:00.681Z,12.49
2023-05-09T03:52:22.133Z,12.44
2023-05-09T03:54:43.584Z,12.53
2023-05-09T03:57:05.437Z,12.51
2023-05-09T03:59:26.904Z,12.51
2023-05-09T04:01:48.403Z,12.48
2023-05-09T04:04:10.007Z,12.55
2023-05-09T04:06:31.520Z,12.60
2023-05-09T04:08:53.013Z,12.59
2023-05-09T04:11:14.504Z,12.54
2023-05-09T04:13:36.057Z,12.47
2023-05-09T04:15:57.531Z,12.38
2023-05-09T04:18:19.074Z,12.48
2023-05-09T04:20:40.809Z,12.56
2023-05-09T04:23:02.297Z,12.62
2023-05-09T04:25:23.733Z,12.68
2023-05-09T04:27:45.525Z,12.72
2023-05-09T04:30:07.586Z,12.70
2023-05-09T04:32:29.053Z,12.72
2023-05-09T04:34:50.666Z,12.60
2023-05-09T04:37:13.322Z,12.68
2023-05-09T04:39:34.788Z,12.76
2023-05-09T04:41:56.292Z,12.85
2023-05-09T04:44:18.542Z,12.69
2023-05-09T04:46:40.522Z,12.66
2023-05-09T04:49:02.016Z,12.61
2023-05-09T04:51:23.576Z,12.68
2023-05-09T04:53:45.311Z,12.30
2023-05-09T04:56:07.062Z,12.40
2023-05-09T04:58:28.508Z,12.40
2023-05-09T05:00:50.121Z,12.38
2023-05-09T05:03:11.650Z,12.46
2023-05-09T05:05:35.996Z,12.68
2023-05-09T05:07:58.558Z,12.63
2023-05-09T05:10:20.045Z,12.65
2023-05-09T05:12:41.528Z,12.80
2023-05-09T05:15:03.028Z,12.83
2023-05-09T05:17:24.885Z,12.90
2023-05-09T05:19:46.354Z,13.03
2023-05-09T05:22:07.799Z,13.05
2023-05-09T05:24:29.295Z,13.06
2023-05-09T05:26:50.753Z,13.16
2023-05-09T05:29:12.199Z,13.39
2023-05-09T05:31:33.672Z,13.50
2023-05-09T05:33:55.134Z,13.50
2023-05-09T05:36:16.620Z,13.56
2023-05-09T05:38:38.070Z,13.68
2023-05-09T05:40:59.530Z,13.83
2023-05-09T05:43:21.009Z,13.90
2023-05-09T05:45:42.496Z,13.83
2023-05-09T05:48:04.260Z,13.89
2023-05-09T05:50:25.761Z,13.89
2023-05-09T05:52:47.370Z,13.90
2023-05-09T05:55:09.313Z,13.95
2023-05-09T05:57:31.097Z,13.95
2023-05-09T05:59:52.522Z,14.02
2023-05-09T06:02:14.678Z,14.25
2023-05-09T06:04:36.174Z,14.48
2023-05-09T06:06:58.045Z,14.53
2023-05-09T06:09:19.495Z,14.74
2023-05-09T06:11:40.974Z,14.61
2023-05-09T06:14:02.429Z,14.57
2023-05-09T06:16:23.978Z,14.75
2023-05-09T06:18:45.538Z,14.81
2023-05-09T06:21:07.544Z,14.78
2023-05-09T06:23:29.022Z,14.86
2023-05-09T06:25:50.526Z,14.98
2023-05-09T06:28:11.978Z,15.13
2023-05-09T06:30:33.443Z,15.04
2023-05-09T06:32:55.604Z,15.02
2023-05-09T06:35:17.308Z,15.07
2023-05-09T06:37:38.769Z,15.18
2023-05-09T06:40:00.288Z,15.42
2023-05-09T06:42:21.751Z,15.52
2023-05-09T06:44:43.878Z,15.56
2023-05-09T06:47:05.473Z,15.45
2023-05-09T06:49:26.939Z,15.54
2023-05-09T06:51:48.388Z,15.49
2023-05-09T06:54:10.071Z,15.61
2023-05-09T06:56:31.706Z,15.73
2023-05-09T06:58:53.496Z,15.78
2023-05-09T07:01:15.101Z,15.78
2023-05-09T07:03:36.550Z,15.76
2023-05-09T07:05:59.029Z,15.86
2023-05-09T07:08:20.459Z,15.74
2023-05-09T07:10:41.916Z,15.90
2023-05-09T07:13:03.395Z,16.07
2023-05-09T07:15:37.183Z,16.21
2023-05-09T07:18:02.530Z,16.21
2023-05-09T07:20:23.996Z,16.28
2023-05-09T07:22:45.498Z,16.35
2023-05-09T07:25:08.744Z,16.45
2023-05-09T07:27:30.175Z,16.48
2023-05-09T07:29:52.572Z,16.81
2023-05-09T07:32:14.090Z,17.02
2023-05-09T07:34:36.024Z,17.21
2023-05-09T07:36:58.749Z,17.21
2023-05-09T07:39:20.342Z,17.24
2023-05-09T07:41:42.289Z,17.30
2023-05-09T07:44:03.835Z,17.61
2023-05-09T07:46:25.407Z,17.58
2023-05-09T07:48:47.013Z,17.61
2023-05-09T07:51:08.690Z,17.96
2023-05-09T07:53:30.157Z,18.07
2023-05-09T07:55:52.312Z,18.31
2023-05-09T07:58:14.093Z,18.57
2023-05-09T08:00:36.094Z,18.90
2023-05-09T08:02:57.652Z,18.83
2023-05-09T08:05:19.312Z,18.94
2023-05-09T08:07:40.786Z,19.32
2023-05-09T08:10:02.585Z,19.34
2023-05-09T08:12:24.143Z,19.60
2023-05-09T08:14:45.657Z,19.25
2023-05-09T08:17:07.100Z,19.49
2023-05-09T08:19:28.625Z,19.57
2023-05-09T08:21:50.167Z,19.62
2023-05-09T08:24:11.676Z,19.38
2023-05-09T08:26:33.124Z,19.50
2023-05-09T08:28:54.642Z,19.53
2023-05-09T08:31:16.203Z,19.73
2023-05-09T08:33:39.328Z,19.87
2023-05-09T08:36:02.453Z,19.80
2023-05-09T08:38:24.811Z,19.98
2023-05-09T08:40:46.736Z,20.31
2023-05-09T08:43:09.412Z,19.93
2023-05-09T08:45:32.833Z,20.23
2023-05-09T08:47:55.060Z,20.40
2023-05-09T08:50:17.614Z,20.42
2023-05-09T08:52:39.674Z,20.65
2023-05-09T08:55:04.817Z,20.67
2023-05-09T08:57:27.659Z,20.84
2023-05-09T08:59:49.668Z,21.20
2023-05-09T09:02:14.505Z,21.41
2023-05-09T09:04:36.047Z,21.85
2023-05-09T09:06:58.077Z,22.31
2023-05-09T09:09:21.001Z,22.77
2023-05-09T09:11:43.319Z,23.09
2023-05-09T09:14:25.787Z,23.34
2023-05-09T09:16:48.974Z,23.78
2023-05-09T09:19:13.063Z,24.22
2023-05-09T09:21:34.562Z,24.42
2023-05-09T09:23:56.778Z,24.68
2023-05-09T09:26:18.303Z,24.84
2023-05-09T09:28:40.168Z,25.01
2023-05-09T09:31:01.993Z,25.13
2023-05-09T09:33:24.954Z,25.28
2023-05-09T09:35:48.547Z,25.32
2023-05-09T09:38:10.025Z,25.28
2023-05-09T09:40:31.569Z,25.16
2023-05-09T09:42:53.128Z,25.67
2023-05-09T09:45:19.664Z,25.83
2023-05-09T09:47:43.310Z,26.07
2023-05-09T09:50:11.104Z,26.00
2023-05-09T09:52:32.604Z,26.06
2023-05-09T09:54:57.182Z,26.11
2023-05-09T09:57:37.266Z,26.00
2023-05-09T09:59:59.330Z,26.35
2023-05-09T10:02:23.828Z,26.70
2023-05-09T10:04:45.257Z,26.80
2023-05-09T10:07:12.783Z,26.89
2023-05-09T10:09:40.121Z,27.00
2023-05-09T10:12:06.792Z,27.14
2023-05-09T10:14:32.067Z,27.38
2023-05-09T10:16:56.814Z,27.67
2023-05-09T10:19:20.841Z,27.15
2023-05-09T10:21:43.164Z,26.93
2023-05-09T10:24:05.440Z,27.34
2023-05-09T10:26:32.474Z,27.03
2023-05-09T10:28:56.059Z,27.24
2023-05-09T10:31:29.535Z,27.40
2023-05-09T10:33:52.170Z,27.60
2023-05-09T10:36:20.470Z,27.05
2023-05-09T10:38:42.786Z,26.64
2023-05-09T10:41:05.278Z,26.78
2023-05-09T10:43:27.286Z,26.82
2023-05-09T10:45:49.037Z,26.98
2023-05-09T10:48:11.663Z,26.80
2023-05-09T10:50:33.206Z,26.90
2023-05-09T10:53:14.135Z,27.29
2023-05-09T10:55:50.208Z,27.07
2023-05-09T10:58:26.668Z,27.35
2023-05-09T11:00:50.384Z,27.56
2023-05-09T11:03:11.894Z,27.72
2023-05-09T11:05:39.116Z,27.85
2023-05-09T11:08:20.360Z,27.72
2023-05-09T11:10:42.994Z,28.02
2023-05-09T11:13:04.552Z,28.19
2023-05-09T11:15:27.849Z,27.64
2023-05-09T11:18:09.429Z,27.99
2023-05-09T11:20:34.227Z,27.87
2023-05-09T11:22:57.450Z,27.81
2023-05-09T11:25:28.049Z,27.80
2023-05-09T11:27:50.187Z,27.87
2023-05-09T11:30:14.617Z,27.93
2023-05-09T11:32:48.070Z,28.02
2023-05-09T11:35:14.899Z,28.35
2023-05-09T11:37:47.151Z,28.44
2023-05-09T11:40:12.231Z,28.90
2023-05-09T11:42:33.670Z,28.87
2023-05-09T11:44:56.900Z,29.25
2023-05-09T11:47:18.451Z,29.25
2023-05-09T11:49:43.523Z,29.41
2023-05-09T11:52:05.397Z,29.61
2023-05-09T11:54:26.930Z,29.22
2023-05-09T11:56:48.472Z,29.64
2023-05-09T11:59:13.146Z,30.25
2023-05-09T12:01:36.314Z,31.31
2023-05-09T12:04:02.218Z,31.29
2023-05-09T12:06:24.728Z,31.87
2023-05-09T12:08:49.112Z,31.82
2023-05-09T12:11:11.004Z,31.57
2023-05-09T12:13:32.564Z,32.24
2023-05-09T12:16:01.143Z,33.20
2023-05-09T12:18:24.049Z,33.45
2023-05-09T12:20:52.721Z,32.93
2023-05-09T12:23:15.000Z,32.50
2023-05-09T12:25:36.541Z,31.66
2023-05-09T12:27:58.679Z,31.72
2023-05-09T12:30:20.451Z,32.59
2023-05-09T12:32:43.577Z,32.52
2023-05-09T12:35:07.264Z,32.63
2023-05-09T12:37:32.571Z,32.13
2023-05-09T12:40:05.009Z,32.58
2023-05-09T12:42:29.623Z,32.53
2023-05-09T12:44:51.453Z,33.99
2023-05-09T12:47:13.416Z,34.29
2023-05-09T12:49:36.919Z,34.60
2023-05-09T12:52:03.025Z,34.82
2023-05-09T12:54:27.749Z,35.51
2023-05-09T12:56:52.135Z,36.08
2023-05-09T12:59:15.387Z,36.39
2023-05-09T13:01:36.921Z,36.22
2023-05-09T13:04:03.763Z,35.65
2023-05-09T13:06:25.387Z,36.01
2023-05-09T13:08:57.817Z,36.84
2023-05-09T13:11:20.649Z,37.87
2023-05-09T13:13:42.531Z,37.62
2023-05-09T13:16:06.003Z,38.10
2023-05-09T13:18:28.425Z,38.38
2023-05-09T13:20:52.800Z,39.06
2023-05-09T13:23:14.222Z,39.16
2023-05-09T13:25:35.780Z,38.94
2023-05-09T13:27:57.235Z,39.73
2023-05-09T13:30:19.193Z,39.71
2023-05-09T13:32:40.940Z,38.94
2023-05-09T13:35:02.921Z,37.25
2023-05-09T13:37:24.427Z,36.86
2023-05-09T13:39:46.425Z,38.01
2023-05-09T13:42:08.083Z,39.23
2023-05-09T13:44:29.671Z,38.99
2023-05-09T13:46:51.221Z,39.33
2023-05-09T13:49:12.691Z,39.68
2023-05-09T13:51:34.585Z,39.97
2023-05-09T13:53:56.087Z,40.59
2023-05-09T13:56:17.518Z,39.91
2023-05-09T13:58:39.001Z,40.21
2023-05-09T14:01:00.496Z,40.26
2023-05-09T14:03:21.981Z,40.19
2023-05-09T14:05:43.529Z,39.76
2023-05-09T14:08:05.102Z,39.64
2023-05-09T14:10:27.206Z,39.71
2023-05-09T14:12:48.784Z,40.06
2023-05-09T14:15:11.219Z,40.46
2023-05-09T14:17:32.801Z,39.61
2023-05-09T14:19:54.406Z,38.62
2023-05-09T14:22:16.391Z,38.07
2023-05-09T14:24:37.860Z,37.58
2023-05-09T14:26:59.382Z,37.09
2023-05-09T14:29:21.386Z,38.14
2023-05-09T14:31:42.916Z,39.20
2023-05-09T14:34:05.357Z,39.29
2023-05-09T14:36:28.698Z,39.40
2023-05-09T14:38:50.163Z,39.20
2023-05-09T14:41:11.839Z,39.73
2023-05-09T14:43:33.524Z,39.54
2023-05-09T14:45:55.611Z,40.23
2023-05-09T14:48:17.418Z,40.11
2023-05-09T14:50:39.309Z,40.19
2023-05-09T14:53:01.213Z,39.85
2023-05-09T14:55:23.319Z,39.92
2023-05-09T14:57:45.394Z,39.19
2023-05-09T15:00:19.565Z,39.48
2023-05-09T15:02:43.191Z,39.05
2023-05-09T15:05:04.987Z,39.93
2023-05-09T15:07:26.464Z,39.84
2023-05-09T15:09:47.915Z,39.84
2023-05-09T15:12:09.446Z,39.57
2023-05-09T15:14:31.050Z,40.09
2023-05-09T15:16:53.124Z,40.10
2023-05-09T15:19:14.748Z,40.77
2023-05-09T15:21:36.286Z,39.87
2023-05-09T15:23:58.255Z,40.42
2023-05-09T15:26:19.681Z,39.93
2023-05-09T15:28:41.221Z,39.80
2023-05-09T15:31:03.515Z,40.18
2023-05-09T15:33:25.266Z,40.30
2023-05-09T15:35:46.863Z,40.19
2023-05-09T15:38:12.029Z,39.98
2023-05-09T15:40:33.473Z,40.86
2023-05-09T15:42:54.927Z,40.41
2023-05-09T15:45:16.751Z,40.97
2023-05-09T15:47:38.317Z,40.74
2023-05-09T15:49:59.821Z,39.94
2023-05-09T15:52:21.460Z,39.41
2023-05-09T15:54:45.163Z,39.54
2023-05-09T15:57:07.227Z,39.28
2023-05-09T15:59:28.655Z,38.65
2023-05-09T16:01:50.188Z,38.79
2023-05-09T16:04:11.924Z,39.59
2023-05-09T16:06:33.645Z,40.63
2023-05-09T16:08:55.129Z,39.71
2023-05-09T16:11:16.566Z,40.49
2023-05-09T16:13:38.499Z,40.32
2023-05-09T16:16:00.720Z,40.14
2023-05-09T16:18:22.634Z,39.66
2023-05-09T16:20:44.265Z,39.36
2023-05-09T16:23:05.738Z,39.39
2023-05-09T16:25:27.427Z,38.56
2023-05-09T16:49:05.127Z,33.74
2023-05-09T16:51:26.674Z,33.57
2023-05-09T16:53:48.142Z,33.38
2023-05-09T16:56:11.111Z,33.12
2023-05-09T16:58:32.597Z,33.09
2023-05-09T17:00:55.308Z,33.30
2023-05-09T17:03:16.900Z,33.69
2023-05-09T17:05:38.334Z,33.94
2023-05-09T17:07:59.824Z,33.62
2023-05-09T17:10:21.577Z,33.99
2023-05-09T17:12:43.129Z,33.87
2023-05-09T17:15:08.675Z,33.89
2023-05-09T17:17:30.142Z,33.68
2023-05-09T17:19:51.670Z,32.96
2023-05-09T17:22:13.366Z,32.91
2023-05-09T17:24:34.986Z,32.39
2023-05-09T17:26:56.739Z,32.22
2023-05-09T17:29:18.290Z,31.80
2023-05-09T17:31:39.738Z,31.65
2023-05-09T17:34:01.490Z,31.41
2023-05-09T17:36:23.083Z,31.20
2023-05-09T17:38:44.584Z,30.92
2023-05-09T17:41:07.050Z,30.64
2023-05-09T17:43:28.804Z,30.26
2023-05-09T17:45:53.575Z,30.09
2023-05-09T17:48:15.945Z,29.77
2023-05-09T17:50:37.402Z,29.58
2023-05-09T17:52:58.838Z,29.33
2023-05-09T17:55:20.539Z,29.13
2023-05-09T17:57:43.037Z,28.91
2023-05-09T18:00:08.804Z,28.63
2023-05-09T18:02:30.284Z,28.41
2023-05-09T18:04:52.308Z,28.14
2023-05-09T18:07:14.227Z,27.92
2023-05-09T18:09:35.736Z,27.62
2023-05-09T18:11:57.327Z,27.36
2023-05-09T18:14:18.773Z,27.17
2023-05-09T18:16:40.287Z,26.92
2023-05-09T18:19:01.757Z,26.69
2023-05-09T18:21:23.209Z,26.42
2023-05-09T18:23:44.638Z,26.18
2023-05-09T18:26:06.261Z,25.95
2023-05-09T18:28:28.828Z,25.75
2023-05-09T18:30:54.643Z,25.53
2023-05-09T18:33:16.213Z,25.34
2023-05-09T18:35:37.677Z,25.14
2023-05-09T18:37:59.117Z,25.02
2023-05-09T18:40:20.581Z,24.82
2023-05-09T18:42:42.221Z,24.70
2023-05-09T18:45:05.884Z,24.46
2023-05-09T18:47:28.084Z,24.36
2023-05-09T18:49:49.581Z,24.23
2023-05-09T18:52:11.033Z,24.11
2023-05-09T18:54:32.496Z,23.94
2023-05-09T18:56:53.938Z,23.76
2023-05-09T18:59:16.400Z,23.62
2023-05-09T19:01:38.082Z,23.44
2023-05-09T19:03:59.740Z,23.30
2023-05-09T19:06:21.610Z,23.20
2023-05-09T19:08:43.600Z,23.08
2023-05-09T19:11:05.106Z,22.90
2023-05-09T19:13:26.879Z,22.77
2023-05-09T19:15:48.393Z,22.71
2023-05-09T19:18:09.880Z,22.57
2023-05-09T19:20:31.595Z,22.43
2023-05-09T19:22:53.172Z,22.37
2023-05-09T19:25:14.635Z,22.31
2023-05-09T19:27:36.441Z,22.29
2023-05-09T19:29:59.382Z,22.18
2023-05-09T19:32:20.922Z,22.06
2023-05-09T19:34:42.401Z,21.99
2023-05-09T19:37:03.885Z,21.91
2023-05-09T19:39:25.385Z,21.86
2023-05-09T19:41:46.896Z,21.79
2023-05-09T19:44:08.395Z,21.74
2023-05-09T19:46:29.999Z,21.68
2023-05-09T19:48:51.809Z,21.69
2023-05-09T19:51:15.183Z,21.62
2023-05-09T19:53:36.656Z,21.58
2023-05-09T19:55:58.756Z,21.44
2023-05-09T19:58:20.319Z,21.38
2023-05-09T20:00:41.808Z,21.35
2023-05-09T20:03:04.106Z,21.28
2023-05-09T20:05:25.894Z,21.27
2023-05-09T20:07:47.332Z,21.27
2023-05-09T20:10:09.190Z,21.14
2023-05-09T20:12:30.677Z,21.10
2023-05-09T20:14:52.139Z,21.00
2023-05-09T20:17:13.590Z,20.95
2023-05-09T20:19:35.135Z,20.82
2023-05-09T20:21:56.747Z,20.85
2023-05-09T20:24:19.442Z,20.87
2023-05-09T20:26:40.862Z,20.86
2023-05-09T20:29:02.400Z,20.83
2023-05-09T20:31:23.878Z,20.75
2023-05-09T20:33:45.372Z,20.68
2023-05-09T20:36:09.428Z,20.58
2023-05-09T20:38:30.880Z,20.51
2023-05-09T20:40:52.315Z,20.41
2023-05-09T20:43:13.789Z,20.40
2023-05-09T20:45:37.381Z,20.34
2023-05-09T20:47:59.392Z,20.30
2023-05-09T20:50:21.022Z,20.19
2023-05-09T20:52:42.496Z,20.17
2023-05-09T20:55:04.268Z,20.11
2023-05-09T20:57:25.820Z,20.02
2023-05-09T20:59:47.253Z,19.97
2023-05-09T21:02:08.986Z,19.91
2023-05-09T21:04:30.587Z,19.75
2023-05-09T21:06:52.056Z,19.71
2023-05-09T21:09:13.532Z,19.68
2023-05-09T21:11:35.052Z,19.59
2023-05-09T21:13:56.802Z,19.62
2023-05-09T21:16:18.313Z,19.60
2023-05-09T21:18:39.754Z,19.56
2023-05-09T21:21:02.757Z,19.44
2023-05-09T21:23:24.195Z,19.34
2023-05-09T21:25:45.661Z,19.32
2023-05-09T21:28:07.090Z,19.25
2023-05-09T21:30:28.683Z,19.22
2023-05-09T21:32:51.315Z,19.02
2023-05-09T21:35:13.713Z,19.04
2023-05-09T21:37:35.213Z,19.04
2023-05-09T21:39:57.137Z,18.92
2023-05-09T21:42:18.578Z,18.83
2023-05-09T21:44:40.038Z,18.81
2023-05-09T21:47:01.541Z,18.91
2023-05-09T21:49:23.100Z,19.11
2023-05-09T21:51:44.559Z,19.09
2023-05-09T21:54:06.298Z,19.11
2023-05-09T21:56:27.748Z,19.12
2023-05-09T21:58:49.243Z,19.20
2023-05-09T22:01:10.931Z,19.23
2023-05-09T22:03:32.443Z,19.25
2023-05-09T22:05:53.975Z,19.39
2023-05-09T22:08:15.612Z,19.22
2023-05-09T22:10:37.791Z,19.33
2023-05-09T22:12:59.312Z,19.36
2023-05-09T22:15:20.946Z,19.38
2023-05-09T22:17:42.495Z,19.43
2023-05-09T22:20:04.434Z,19.28
2023-05-09T22:22:26.967Z,19.24
2023-05-09T22:24:49.771Z,19.30
2023-05-09T22:27:11.578Z,19.23
2023-05-09T22:29:34.486Z,19.15
2023-05-09T22:31:55.939Z,19.06
2023-05-09T22:34:17.434Z,19.08
2023-05-09T22:36:38.856Z,18.85
2023-05-09T22:39:00.293Z,18.87
2023-05-09T22:41:22.093Z,18.88
2023-05-09T22:43:43.874Z,18.71
2023-05-09T22:46:05.692Z,18.85
2023-05-09T22:48:27.175Z,18.73
2023-05-09T22:50:48.639Z,18.65
2023-05-09T22:53:10.239Z,18.63
2023-05-09T22:55:31.748Z,18.66
2023-05-09T22:57:53.228Z,18.62
2023-05-09T23:00:15.598Z,18.58
2023-05-09T23:02:37.378Z,18.48
2023-05-09T23:04:59.102Z,18.59
2023-05-09T23:07:20.537Z,18.76
2023-05-09T23:09:42.025Z,18.81
2023-05-09T23:12:03.808Z,18.92
2023-05-09T23:14:25.339Z,18.84
2023-05-09T23:16:46.887Z,18.73
2023-05-09T23:19:08.384Z,18.77
2023-05-09T23:21:29.841Z,18.80
2023-05-09T23:23:51.270Z,18.67
2023-05-09T23:26:12.763Z,18.62
2023-05-09T23:28:34.443Z,18.59
2023-05-09T23:30:55.940Z,18.53
2023-05-09T23:33:18.060Z,18.42
2023-05-09T23:35:39.497Z,18.51
2023-05-09T23:38:01.013Z,18.63
2023-05-09T23:40:22.511Z,18.68
2023-05-09T23:42:43.955Z,18.66
2023-05-09T23:45:06.565Z,18.59
2023-05-09T23:47:28.032Z,18.65
2023-05-09T23:49:49.542Z,18.66
2023-05-09T23:52:11.147Z,18.80
2023-05-09T23:54:32.597Z,18.64
2023-05-09T23:56:56.348Z,18.73
2023-05-09T23:59:17.876Z,18.68
